sensor_id;sensor_type;location;lat;lon;timestamp;pressure;altitude;pressure_sealevel;temperature;humidity
27840;BME280;15207;42.182;24.308;2022-08-19T00:01:30;98702.19;;;23.86;57.81
27840;BME280;15207;42.182;24.308;2022-08-19T00:04:03;98698.03;;;23.83;58.29
27840;BME280;15207;42.182;24.308;2022-08-19T00:06:30;98698.50;;;23.80;57.93
27840;BME280;15207;42.182;24.308;2022-08-19T00:08:56;98693.06;;;23.73;58.49
27840;BME280;15207;42.182;24.308;2022-08-19T00:11:22;98696.63;;;23.74;58.04
27840;BME280;15207;42.182;24.308;2022-08-19T00:13:48;98695.13;;;23.78;58.52
27840;BME280;15207;42.182;24.308;2022-08-19T00:16:16;98691.31;;;23.79;58.27
27840;BME280;15207;42.182;24.308;2022-08-19T00:18:44;98683.38;;;23.77;58.29
27840;BME280;15207;42.182;24.308;2022-08-19T00:21:10;98692.38;;;23.78;58.35
27840;BME280;15207;42.182;24.308;2022-08-19T00:23:36;98690.94;;;23.75;58.74
27840;BME280;15207;42.182;24.308;2022-08-19T00:26:04;98683.03;;;23.67;59.25
27840;BME280;15207;42.182;24.308;2022-08-19T00:28:29;98686.84;;;23.59;59.25
27840;BME280;15207;42.182;24.308;2022-08-19T00:30:55;98685.00;;;23.53;60.76
27840;BME280;15207;42.182;24.308;2022-08-19T00:33:21;98689.50;;;23.47;60.53
27840;BME280;15207;42.182;24.308;2022-08-19T00:35:47;98690.16;;;23.36;61.29
27840;BME280;15207;42.182;24.308;2022-08-19T00:38:13;98679.81;;;23.06;62.94
27840;BME280;15207;42.182;24.308;2022-08-19T00:40:42;98680.69;;;22.99;63.50
27840;BME280;15207;42.182;24.308;2022-08-19T00:43:10;98678.63;;;22.95;63.99
27840;BME280;15207;42.182;24.308;2022-08-19T00:45:38;98682.63;;;22.92;64.03
27840;BME280;15207;42.182;24.308;2022-08-19T00:48:06;98676.56;;;22.83;63.98
27840;BME280;15207;42.182;24.308;2022-08-19T00:50:33;98680.47;;;22.49;64.47
27840;BME280;15207;42.182;24.308;2022-08-19T00:52:59;98679.50;;;22.23;65.54
27840;BME280;15207;42.182;24.308;2022-08-19T00:55:26;98675.50;;;22.32;64.34
27840;BME280;15207;42.182;24.308;2022-08-19T00:58:04;98682.56;;;22.46;65.75
27840;BME280;15207;42.182;24.308;2022-08-19T01:00:31;98680.69;;;22.54;66.28
27840;BME280;15207;42.182;24.308;2022-08-19T01:03:00;98676.91;;;22.55;65.48
27840;BME280;15207;42.182;24.308;2022-08-19T01:05:27;98679.41;;;22.43;67.02
27840;BME280;15207;42.182;24.308;2022-08-19T01:07:56;98670.84;;;22.39;66.93
27840;BME280;15207;42.182;24.308;2022-08-19T01:10:27;98681.31;;;22.49;66.13
27840;BME280;15207;42.182;24.308;2022-08-19T01:12:54;98684.03;;;22.56;65.27
27840;BME280;15207;42.182;24.308;2022-08-19T01:15:26;98680.69;;;22.54;64.88
27840;BME280;15207;42.182;24.308;2022-08-19T01:17:55;98689.66;;;22.61;64.54
27840;BME280;15207;42.182;24.308;2022-08-19T01:20:23;98685.47;;;22.65;63.21
27840;BME280;15207;42.182;24.308;2022-08-19T01:22:52;98685.66;;;22.70;62.64
27840;BME280;15207;42.182;24.308;2022-08-19T01:25:19;98688.56;;;22.76;61.90
27840;BME280;15207;42.182;24.308;2022-08-19T01:27:48;98691.72;;;22.79;62.14
27840;BME280;15207;42.182;24.308;2022-08-19T01:30:21;98694.47;;;22.79;62.35
27840;BME280;15207;42.182;24.308;2022-08-19T01:32:48;98694.00;;;22.82;61.66
27840;BME280;15207;42.182;24.308;2022-08-19T01:35:14;98701.94;;;22.97;61.03
27840;BME280;15207;42.182;24.308;2022-08-19T01:37:51;98702.56;;;22.93;61.66
27840;BME280;15207;42.182;24.308;2022-08-19T01:40:19;98705.31;;;22.86;61.79
27840;BME280;15207;42.182;24.308;2022-08-19T01:42:49;98715.22;;;22.80;62.56
27840;BME280;15207;42.182;24.308;2022-08-19T01:45:16;98709.75;;;22.87;62.26
27840;BME280;15207;42.182;24.308;2022-08-19T01:47:42;98706.16;;;22.87;61.89
27840;BME280;15207;42.182;24.308;2022-08-19T01:50:09;98715.34;;;22.99;60.08
27840;BME280;15207;42.182;24.308;2022-08-19T01:52:37;98707.63;;;23.28;59.38
27840;BME280;15207;42.182;24.308;2022-08-19T01:55:05;98714.06;;;23.47;59.15
27840;BME280;15207;42.182;24.308;2022-08-19T01:57:31;98706.22;;;23.58;58.49
27840;BME280;15207;42.182;24.308;2022-08-19T01:59:57;98707.16;;;23.70;57.81
27840;BME280;15207;42.182;24.308;2022-08-19T02:02:23;98713.59;;;23.83;57.47
27840;BME280;15207;42.182;24.308;2022-08-19T02:04:49;98716.72;;;23.86;57.00
27840;BME280;15207;42.182;24.308;2022-08-19T02:07:17;98715.88;;;23.86;57.07
27840;BME280;15207;42.182;24.308;2022-08-19T02:09:43;98719.44;;;23.86;56.85
27840;BME280;15207;42.182;24.308;2022-08-19T02:12:09;98718.00;;;23.84;57.62
27840;BME280;15207;42.182;24.308;2022-08-19T02:14:36;98719.28;;;23.81;56.78
27840;BME280;15207;42.182;24.308;2022-08-19T02:17:01;98722.06;;;23.74;56.94
27840;BME280;15207;42.182;24.308;2022-08-19T02:19:27;98720.88;;;23.63;57.50
27840;BME280;15207;42.182;24.308;2022-08-19T02:21:53;98719.47;;;23.54;57.78
27840;BME280;15207;42.182;24.308;2022-08-19T02:24:18;98723.94;;;23.48;59.03
27840;BME280;15207;42.182;24.308;2022-08-19T02:26:44;98723.59;;;23.38;60.02
27840;BME280;15207;42.182;24.308;2022-08-19T02:29:09;98725.81;;;23.09;61.29
27840;BME280;15207;42.182;24.308;2022-08-19T02:31:36;98727.56;;;22.90;63.03
27840;BME280;15207;42.182;24.308;2022-08-19T02:34:01;98733.50;;;22.73;62.63
27840;BME280;15207;42.182;24.308;2022-08-19T02:36:27;98730.59;;;22.61;63.36
27840;BME280;15207;42.182;24.308;2022-08-19T02:38:54;98727.06;;;22.54;63.65
27840;BME280;15207;42.182;24.308;2022-08-19T02:41:22;98737.53;;;22.50;64.65
27840;BME280;15207;42.182;24.308;2022-08-19T02:43:49;98730.63;;;22.41;64.83
27840;BME280;15207;42.182;24.308;2022-08-19T02:46:20;98737.16;;;22.26;64.66
27840;BME280;15207;42.182;24.308;2022-08-19T02:48:50;98739.06;;;22.19;65.62
27840;BME280;15207;42.182;24.308;2022-08-19T02:51:17;98730.22;;;22.24;65.93
27840;BME280;15207;42.182;24.308;2022-08-19T02:53:43;98743.00;;;22.23;66.35
27840;BME280;15207;42.182;24.308;2022-08-19T02:56:08;98732.97;;;22.17;66.46
27840;BME280;15207;42.182;24.308;2022-08-19T02:58:33;98728.56;;;22.09;66.47
27840;BME280;15207;42.182;24.308;2022-08-19T03:00:59;98735.47;;;22.05;67.02
27840;BME280;15207;42.182;24.308;2022-08-19T03:03:25;98733.81;;;21.97;67.90
27840;BME280;15207;42.182;24.308;2022-08-19T03:05:51;98733.00;;;21.90;67.77
27840;BME280;15207;42.182;24.308;2022-08-19T03:08:18;98741.16;;;21.83;69.09
27840;BME280;15207;42.182;24.308;2022-08-19T03:10:45;98745.72;;;21.69;69.98
27840;BME280;15207;42.182;24.308;2022-08-19T03:13:16;98754.34;;;21.73;69.30
27840;BME280;15207;42.182;24.308;2022-08-19T03:15:44;98753.69;;;21.64;70.82
27840;BME280;15207;42.182;24.308;2022-08-19T03:18:11;98755.56;;;21.63;70.98
27840;BME280;15207;42.182;24.308;2022-08-19T03:20:43;98765.00;;;21.67;69.17
27840;BME280;15207;42.182;24.308;2022-08-19T03:23:10;98759.16;;;21.77;67.74
27840;BME280;15207;42.182;24.308;2022-08-19T03:25:44;98768.28;;;21.36;69.63
27840;BME280;15207;42.182;24.308;2022-08-19T03:28:11;98777.44;;;21.21;69.87
27840;BME280;15207;42.182;24.308;2022-08-19T03:30:38;98781.63;;;21.24;70.66
27840;BME280;15207;42.182;24.308;2022-08-19T03:33:07;98796.03;;;21.11;71.91
27840;BME280;15207;42.182;24.308;2022-08-19T03:35:33;98791.88;;;21.15;71.29
27840;BME280;15207;42.182;24.308;2022-08-19T03:38:02;98785.00;;;21.26;71.54
27840;BME280;15207;42.182;24.308;2022-08-19T03:40:28;98789.41;;;21.27;70.16
27840;BME280;15207;42.182;24.308;2022-08-19T03:42:56;98795.22;;;21.17;70.41
27840;BME280;15207;42.182;24.308;2022-08-19T03:45:22;98800.06;;;21.22;71.04
27840;BME280;15207;42.182;24.308;2022-08-19T03:47:48;98790.72;;;21.45;70.24
27840;BME280;15207;42.182;24.308;2022-08-19T03:50:14;98791.81;;;21.57;70.71
27840;BME280;15207;42.182;24.308;2022-08-19T03:52:40;98801.88;;;21.70;70.27
27840;BME280;15207;42.182;24.308;2022-08-19T03:55:06;98798.13;;;21.71;70.73
27840;BME280;15207;42.182;24.308;2022-08-19T03:57:32;98799.16;;;21.63;71.23
27840;BME280;15207;42.182;24.308;2022-08-19T03:59:59;98801.47;;;21.66;72.13
27840;BME280;15207;42.182;24.308;2022-08-19T04:02:24;98799.31;;;21.55;72.98
27840;BME280;15207;42.182;24.308;2022-08-19T04:04:53;98808.75;;;21.52;73.74
27840;BME280;15207;42.182;24.308;2022-08-19T04:07:20;98814.19;;;21.52;73.77
27840;BME280;15207;42.182;24.308;2022-08-19T04:09:47;98815.84;;;21.40;73.97
27840;BME280;15207;42.182;24.308;2022-08-19T04:12:13;98810.41;;;21.40;73.94
27840;BME280;15207;42.182;24.308;2022-08-19T04:14:40;98811.44;;;21.39;74.94
27840;BME280;15207;42.182;24.308;2022-08-19T04:17:06;98808.28;;;21.29;73.72
27840;BME280;15207;42.182;24.308;2022-08-19T04:19:34;98816.03;;;21.38;74.32
27840;BME280;15207;42.182;24.308;2022-08-19T04:22:01;98822.56;;;21.44;73.54
27840;BME280;15207;42.182;24.308;2022-08-19T04:24:26;98824.69;;;21.56;72.74
27840;BME280;15207;42.182;24.308;2022-08-19T04:26:52;98823.03;;;21.61;71.87
27840;BME280;15207;42.182;24.308;2022-08-19T04:29:23;98822.88;;;21.76;70.91
27840;BME280;15207;42.182;24.308;2022-08-19T04:31:51;98826.06;;;21.93;71.36
27840;BME280;15207;42.182;24.308;2022-08-19T04:34:20;98829.84;;;22.13;71.13
27840;BME280;15207;42.182;24.308;2022-08-19T04:36:47;98826.28;;;22.46;70.74
27840;BME280;15207;42.182;24.308;2022-08-19T04:39:15;98828.19;;;22.66;69.27
27840;BME280;15207;42.182;24.308;2022-08-19T04:41:41;98828.97;;;22.87;70.04
27840;BME280;15207;42.182;24.308;2022-08-19T04:44:25;98828.88;;;23.20;69.32
27840;BME280;15207;42.182;24.308;2022-08-19T04:46:51;98829.91;;;23.40;69.52
27840;BME280;15207;42.182;24.308;2022-08-19T04:49:20;98819.94;;;23.52;69.13
27840;BME280;15207;42.182;24.308;2022-08-19T04:51:47;98826.59;;;23.70;67.79
27840;BME280;15207;42.182;24.308;2022-08-19T04:54:16;98820.75;;;23.91;67.83
27840;BME280;15207;42.182;24.308;2022-08-19T04:56:42;98822.53;;;24.11;66.95
27840;BME280;15207;42.182;24.308;2022-08-19T04:59:09;98823.53;;;24.42;64.38
27840;BME280;15207;42.182;24.308;2022-08-19T05:01:35;98826.44;;;24.73;61.78
27840;BME280;15207;42.182;24.308;2022-08-19T05:04:02;98817.88;;;25.07;61.56
27840;BME280;15207;42.182;24.308;2022-08-19T05:06:29;98813.56;;;25.30;60.18
27840;BME280;15207;42.182;24.308;2022-08-19T05:08:59;98825.69;;;25.59;57.82
27840;BME280;15207;42.182;24.308;2022-08-19T05:11:27;98820.47;;;25.70;56.24
27840;BME280;15207;42.182;24.308;2022-08-19T05:13:54;98825.06;;;25.88;55.73
27840;BME280;15207;42.182;24.308;2022-08-19T05:16:22;98827.97;;;26.05;53.96
27840;BME280;15207;42.182;24.308;2022-08-19T05:18:48;98825.47;;;26.15;52.26
27840;BME280;15207;42.182;24.308;2022-08-19T05:21:32;98828.28;;;26.27;52.24
27840;BME280;15207;42.182;24.308;2022-08-19T05:24:18;98835.09;;;26.61;52.58
27840;BME280;15207;42.182;24.308;2022-08-19T05:26:46;98826.59;;;26.74;49.94
27840;BME280;15207;42.182;24.308;2022-08-19T05:29:14;98838.44;;;26.87;49.28
27840;BME280;15207;42.182;24.308;2022-08-19T05:31:40;98833.75;;;26.87;48.84
27840;BME280;15207;42.182;24.308;2022-08-19T05:34:06;98844.16;;;27.09;48.83
27840;BME280;15207;42.182;24.308;2022-08-19T05:36:37;98838.13;;;27.36;48.39
27840;BME280;15207;42.182;24.308;2022-08-19T05:39:07;98844.16;;;27.50;48.93
27840;BME280;15207;42.182;24.308;2022-08-19T05:41:34;98845.75;;;27.75;47.18
27840;BME280;15207;42.182;24.308;2022-08-19T05:44:04;98847.28;;;27.83;47.48
27840;BME280;15207;42.182;24.308;2022-08-19T05:46:34;98847.78;;;27.80;46.95
27840;BME280;15207;42.182;24.308;2022-08-19T05:49:00;98841.44;;;27.79;47.48
27840;BME280;15207;42.182;24.308;2022-08-19T05:51:26;98844.81;;;27.98;45.80
27840;BME280;15207;42.182;24.308;2022-08-19T05:53:51;98842.47;;;27.90;44.10
27840;BME280;15207;42.182;24.308;2022-08-19T05:56:17;98841.03;;;28.17;44.29
27840;BME280;15207;42.182;24.308;2022-08-19T05:58:44;98845.69;;;28.16;44.25
27840;BME280;15207;42.182;24.308;2022-08-19T06:01:18;98854.66;;;27.94;44.79
27840;BME280;15207;42.182;24.308;2022-08-19T06:03:44;98856.03;;;28.09;43.92
27840;BME280;15207;42.182;24.308;2022-08-19T06:06:11;98854.38;;;28.25;44.07
27840;BME280;15207;42.182;24.308;2022-08-19T06:08:37;98854.47;;;28.30;44.05
27840;BME280;15207;42.182;24.308;2022-08-19T06:11:13;98847.22;;;28.41;45.20
27840;BME280;15207;42.182;24.308;2022-08-19T06:13:39;98849.56;;;28.32;43.96
27840;BME280;15207;42.182;24.308;2022-08-19T06:16:05;98855.31;;;28.48;43.54
27840;BME280;15207;42.182;24.308;2022-08-19T06:18:30;98847.03;;;28.65;42.77
27840;BME280;15207;42.182;24.308;2022-08-19T06:20:56;98859.31;;;28.74;43.70
27840;BME280;15207;42.182;24.308;2022-08-19T06:23:21;98849.59;;;28.89;43.35
27840;BME280;15207;42.182;24.308;2022-08-19T06:25:47;98855.66;;;29.08;43.67
27840;BME280;15207;42.182;24.308;2022-08-19T06:28:13;98848.16;;;29.26;43.07
27840;BME280;15207;42.182;24.308;2022-08-19T06:30:38;98853.28;;;29.39;41.98
27840;BME280;15207;42.182;24.308;2022-08-19T06:33:04;98856.63;;;29.64;41.96
27840;BME280;15207;42.182;24.308;2022-08-19T06:35:30;98851.16;;;29.47;41.19
27840;BME280;15207;42.182;24.308;2022-08-19T06:37:56;98854.28;;;29.50;40.89
27840;BME280;15207;42.182;24.308;2022-08-19T06:40:22;98848.16;;;29.70;42.57
27840;BME280;15207;42.182;24.308;2022-08-19T06:42:48;98838.72;;;29.94;40.43
27840;BME280;15207;42.182;24.308;2022-08-19T06:45:14;98847.38;;;30.03;41.01
27840;BME280;15207;42.182;24.308;2022-08-19T06:47:39;98844.81;;;30.18;42.24
27840;BME280;15207;42.182;24.308;2022-08-19T06:50:05;98844.94;;;30.06;40.64
27840;BME280;15207;42.182;24.308;2022-08-19T06:52:34;98842.00;;;30.13;40.73
27840;BME280;15207;42.182;24.308;2022-08-19T06:55:01;98843.22;;;30.28;41.65
27840;BME280;15207;42.182;24.308;2022-08-19T06:57:27;98832.78;;;30.35;41.40
27840;BME280;15207;42.182;24.308;2022-08-19T06:59:58;98835.50;;;30.30;40.86
27840;BME280;15207;42.182;24.308;2022-08-19T07:02:25;98839.66;;;30.32;40.50
27840;BME280;15207;42.182;24.308;2022-08-19T07:04:52;98842.34;;;30.22;41.28
27840;BME280;15207;42.182;24.308;2022-08-19T07:07:19;98830.63;;;30.42;40.36
27840;BME280;15207;42.182;24.308;2022-08-19T07:09:45;98837.09;;;30.58;41.69
27840;BME280;15207;42.182;24.308;2022-08-19T07:12:12;98831.72;;;30.79;39.88
27840;BME280;15207;42.182;24.308;2022-08-19T07:14:39;98826.84;;;30.97;40.37
27840;BME280;15207;42.182;24.308;2022-08-19T07:17:11;98835.97;;;31.02;39.24
27840;BME280;15207;42.182;24.308;2022-08-19T07:19:38;98831.19;;;31.31;38.74
27840;BME280;15207;42.182;24.308;2022-08-19T07:22:07;98821.22;;;31.30;36.58
27840;BME280;15207;42.182;24.308;2022-08-19T07:24:33;98818.22;;;31.36;37.26
27840;BME280;15207;42.182;24.308;2022-08-19T07:27:01;98816.03;;;31.49;37.78
27840;BME280;15207;42.182;24.308;2022-08-19T07:29:31;98820.19;;;31.57;37.79
27840;BME280;15207;42.182;24.308;2022-08-19T07:31:58;98812.47;;;31.53;37.81
27840;BME280;15207;42.182;24.308;2022-08-19T07:34:25;98811.13;;;31.72;37.53
27840;BME280;15207;42.182;24.308;2022-08-19T07:36:52;98814.66;;;31.62;37.46
27840;BME280;15207;42.182;24.308;2022-08-19T07:39:21;98813.38;;;31.90;36.90
27840;BME280;15207;42.182;24.308;2022-08-19T07:41:47;98808.41;;;31.98;36.43
27840;BME280;15207;42.182;24.308;2022-08-19T07:44:14;98815.06;;;32.02;37.52
27840;BME280;15207;42.182;24.308;2022-08-19T07:46:44;98817.53;;;31.98;37.13
27840;BME280;15207;42.182;24.308;2022-08-19T07:49:12;98827.22;;;31.96;37.90
27840;BME280;15207;42.182;24.308;2022-08-19T07:51:43;98814.78;;;31.93;37.39
27840;BME280;15207;42.182;24.308;2022-08-19T07:54:09;98818.09;;;32.26;35.88
27840;BME280;15207;42.182;24.308;2022-08-19T07:56:37;98821.97;;;32.41;36.55
27840;BME280;15207;42.182;24.308;2022-08-19T07:59:03;98816.72;;;32.44;34.82
27840;BME280;15207;42.182;24.308;2022-08-19T08:01:29;98820.31;;;32.55;35.21
27840;BME280;15207;42.182;24.308;2022-08-19T08:03:56;98818.34;;;32.71;35.40
27840;BME280;15207;42.182;24.308;2022-08-19T08:06:41;98822.75;;;32.83;35.27
27840;BME280;15207;42.182;24.308;2022-08-19T08:09:36;98812.53;;;32.68;34.86
27840;BME280;15207;42.182;24.308;2022-08-19T08:12:20;98811.41;;;32.79;34.75
27840;BME280;15207;42.182;24.308;2022-08-19T08:14:51;98815.75;;;33.11;34.17
27840;BME280;15207;42.182;24.308;2022-08-19T08:17:20;98810.47;;;33.15;33.02
27840;BME280;15207;42.182;24.308;2022-08-19T08:19:46;98811.66;;;32.88;34.11
27840;BME280;15207;42.182;24.308;2022-08-19T08:22:15;98810.28;;;32.80;34.25
27840;BME280;15207;42.182;24.308;2022-08-19T08:25:18;98802.47;;;32.93;32.41
27840;BME280;15207;42.182;24.308;2022-08-19T08:27:45;98800.75;;;33.18;34.87
27840;BME280;15207;42.182;24.308;2022-08-19T08:30:20;98798.56;;;33.15;32.43
27840;BME280;15207;42.182;24.308;2022-08-19T08:32:47;98795.75;;;33.20;34.27
27840;BME280;15207;42.182;24.308;2022-08-19T08:35:16;98786.84;;;33.28;33.69
27840;BME280;15207;42.182;24.308;2022-08-19T08:37:43;98787.91;;;33.32;32.96
27840;BME280;15207;42.182;24.308;2022-08-19T08:40:19;98784.50;;;33.56;33.08
27840;BME280;15207;42.182;24.308;2022-08-19T08:43:23;98781.97;;;33.60;32.82
27840;BME280;15207;42.182;24.308;2022-08-19T08:46:03;98781.13;;;33.64;34.20
27840;BME280;15207;42.182;24.308;2022-08-19T08:51:23;98775.81;;;33.68;32.16
27840;BME280;15207;42.182;24.308;2022-08-19T08:53:51;98771.19;;;33.93;31.50
27840;BME280;15207;42.182;24.308;2022-08-19T08:56:17;98767.97;;;34.15;31.56
27840;BME280;15207;42.182;24.308;2022-08-19T09:01:10;98758.72;;;34.25;33.63
27840;BME280;15207;42.182;24.308;2022-08-19T09:03:37;98756.03;;;34.45;32.18
27840;BME280;15207;42.182;24.308;2022-08-19T09:06:18;98753.72;;;34.52;31.71
27840;BME280;15207;42.182;24.308;2022-08-19T09:09:05;98752.78;;;34.67;33.48
27840;BME280;15207;42.182;24.308;2022-08-19T09:12:10;98753.28;;;34.93;32.23
27840;BME280;15207;42.182;24.308;2022-08-19T09:15:06;98750.25;;;35.14;30.57
27840;BME280;15207;42.182;24.308;2022-08-19T09:17:34;98746.72;;;35.28;30.65
27840;BME280;15207;42.182;24.308;2022-08-19T09:22:37;98748.34;;;35.09;30.48
27840;BME280;15207;42.182;24.308;2022-08-19T09:25:04;98738.59;;;35.12;32.17
27840;BME280;15207;42.182;24.308;2022-08-19T09:27:31;98738.69;;;35.26;30.06
27840;BME280;15207;42.182;24.308;2022-08-19T09:29:57;98735.94;;;35.45;30.79
27840;BME280;15207;42.182;24.308;2022-08-19T09:32:24;98739.22;;;35.28;29.45
27840;BME280;15207;42.182;24.308;2022-08-19T09:34:51;98735.00;;;35.12;28.90
27840;BME280;15207;42.182;24.308;2022-08-19T09:37:20;98730.94;;;34.79;29.35
27840;BME280;15207;42.182;24.308;2022-08-19T09:39:46;98727.81;;;34.86;30.16
27840;BME280;15207;42.182;24.308;2022-08-19T09:42:12;98722.97;;;35.16;30.03
27840;BME280;15207;42.182;24.308;2022-08-19T09:44:40;98723.59;;;35.32;30.17
27840;BME280;15207;42.182;24.308;2022-08-19T09:47:06;98719.22;;;35.45;28.57
27840;BME280;15207;42.182;24.308;2022-08-19T09:49:33;98713.50;;;35.37;28.56
27840;BME280;15207;42.182;24.308;2022-08-19T09:51:59;98717.50;;;35.30;28.75
27840;BME280;15207;42.182;24.308;2022-08-19T09:54:25;98704.53;;;35.59;29.34
27840;BME280;15207;42.182;24.308;2022-08-19T09:56:54;98706.06;;;35.70;30.18
27840;BME280;15207;42.182;24.308;2022-08-19T09:59:21;98701.38;;;35.85;28.38
27840;BME280;15207;42.182;24.308;2022-08-19T10:01:47;98697.38;;;35.91;28.07
27840;BME280;15207;42.182;24.308;2022-08-19T10:04:13;98700.47;;;36.04;27.84
27840;BME280;15207;42.182;24.308;2022-08-19T10:06:39;98687.69;;;35.69;27.45
27840;BME280;15207;42.182;24.308;2022-08-19T10:09:07;98689.97;;;35.29;28.01
27840;BME280;15207;42.182;24.308;2022-08-19T10:11:34;98684.19;;;34.81;28.38
27840;BME280;15207;42.182;24.308;2022-08-19T10:14:03;98683.53;;;34.90;28.44
27840;BME280;15207;42.182;24.308;2022-08-19T10:16:31;98679.03;;;34.94;28.66
27840;BME280;15207;42.182;24.308;2022-08-19T10:18:57;98673.84;;;34.87;28.65
27840;BME280;15207;42.182;24.308;2022-08-19T10:21:28;98681.09;;;35.07;26.87
27840;BME280;15207;42.182;24.308;2022-08-19T10:23:56;98677.94;;;35.14;27.12
27840;BME280;15207;42.182;24.308;2022-08-19T10:26:28;98676.03;;;35.09;27.42
27840;BME280;15207;42.182;24.308;2022-08-19T10:28:54;98666.94;;;35.04;27.67
27840;BME280;15207;42.182;24.308;2022-08-19T10:31:29;98659.25;;;35.20;28.56
27840;BME280;15207;42.182;24.308;2022-08-19T10:33:56;98662.41;;;35.32;27.97
27840;BME280;15207;42.182;24.308;2022-08-19T10:36:30;98659.00;;;34.97;28.33
27840;BME280;15207;42.182;24.308;2022-08-19T10:38:58;98654.47;;;35.01;28.27
27840;BME280;15207;42.182;24.308;2022-08-19T10:41:32;98662.09;;;35.15;28.09
27840;BME280;15207;42.182;24.308;2022-08-19T10:44:01;98655.88;;;35.23;27.40
27840;BME280;15207;42.182;24.308;2022-08-19T10:46:28;98651.72;;;35.20;26.95
27840;BME280;15207;42.182;24.308;2022-08-19T10:48:58;98648.50;;;35.32;27.26
27840;BME280;15207;42.182;24.308;2022-08-19T10:51:24;98640.88;;;35.38;26.74
27840;BME280;15207;42.182;24.308;2022-08-19T10:54:08;98644.47;;;35.91;26.21
27840;BME280;15207;42.182;24.308;2022-08-19T10:56:35;98639.38;;;36.26;26.12
27840;BME280;15207;42.182;24.308;2022-08-19T10:59:28;98638.63;;;36.49;25.54
27840;BME280;15207;42.182;24.308;2022-08-19T11:01:58;98640.19;;;36.27;24.87
27840;BME280;15207;42.182;24.308;2022-08-19T11:04:24;98639.00;;;36.00;25.43
27840;BME280;15207;42.182;24.308;2022-08-19T11:06:50;98636.31;;;36.09;26.23
27840;BME280;15207;42.182;24.308;2022-08-19T11:09:21;98634.31;;;36.29;26.42
27840;BME280;15207;42.182;24.308;2022-08-19T11:11:49;98632.97;;;36.54;25.59
27840;BME280;15207;42.182;24.308;2022-08-19T11:14:17;98638.63;;;36.21;25.20
27840;BME280;15207;42.182;24.308;2022-08-19T11:16:47;98630.56;;;36.05;25.46
27840;BME280;15207;42.182;24.308;2022-08-19T11:19:14;98631.09;;;36.49;24.87
27840;BME280;15207;42.182;24.308;2022-08-19T11:21:44;98631.13;;;36.63;25.29
27840;BME280;15207;42.182;24.308;2022-08-19T11:24:13;98626.94;;;36.89;24.52
27840;BME280;15207;42.182;24.308;2022-08-19T11:26:40;98619.03;;;37.05;24.23
27840;BME280;15207;42.182;24.308;2022-08-19T11:29:07;98615.97;;;36.92;24.13
27840;BME280;15207;42.182;24.308;2022-08-19T11:31:37;98616.91;;;36.88;24.15
27840;BME280;15207;42.182;24.308;2022-08-19T11:34:06;98609.22;;;37.08;23.57
27840;BME280;15207;42.182;24.308;2022-08-19T11:36:33;98608.75;;;37.28;24.06
27840;BME280;15207;42.182;24.308;2022-08-19T11:39:00;98601.03;;;37.11;23.36
27840;BME280;15207;42.182;24.308;2022-08-19T11:41:26;98604.47;;;36.71;24.24
27840;BME280;15207;42.182;24.308;2022-08-19T11:43:53;98596.00;;;36.99;24.56
27840;BME280;15207;42.182;24.308;2022-08-19T11:46:20;98592.78;;;37.06;24.33
27840;BME280;15207;42.182;24.308;2022-08-19T11:48:46;98588.22;;;37.10;25.27
27840;BME280;15207;42.182;24.308;2022-08-19T11:51:16;98589.16;;;36.83;24.64
27840;BME280;15207;42.182;24.308;2022-08-19T11:53:42;98589.00;;;36.37;24.55
27840;BME280;15207;42.182;24.308;2022-08-19T11:56:09;98585.50;;;36.17;24.54
27840;BME280;15207;42.182;24.308;2022-08-19T11:58:36;98582.59;;;36.08;24.91
27840;BME280;15207;42.182;24.308;2022-08-19T12:01:05;98575.91;;;36.09;25.11
27840;BME280;15207;42.182;24.308;2022-08-19T12:06:03;98567.88;;;36.22;24.90
27840;BME280;15207;42.182;24.308;2022-08-19T12:08:29;98568.41;;;36.24;24.89
27840;BME280;15207;42.182;24.308;2022-08-19T12:10:54;98553.63;;;36.23;25.42
27840;BME280;15207;42.182;24.308;2022-08-19T12:13:20;98563.44;;;36.21;25.04
27840;BME280;15207;42.182;24.308;2022-08-19T12:15:46;98565.91;;;36.22;25.47
27840;BME280;15207;42.182;24.308;2022-08-19T12:18:12;98563.41;;;36.49;24.93
27840;BME280;15207;42.182;24.308;2022-08-19T12:20:42;98556.91;;;36.39;24.31
27840;BME280;15207;42.182;24.308;2022-08-19T12:23:11;98557.53;;;36.50;24.50
27840;BME280;15207;42.182;24.308;2022-08-19T12:25:46;98547.53;;;36.86;24.52
27840;BME280;15207;42.182;24.308;2022-08-19T12:28:19;98549.88;;;36.70;24.70
27840;BME280;15207;42.182;24.308;2022-08-19T12:30:46;98546.19;;;36.84;24.74
27840;BME280;15207;42.182;24.308;2022-08-19T12:33:12;98545.69;;;37.04;25.01
27840;BME280;15207;42.182;24.308;2022-08-19T12:35:43;98538.09;;;36.96;23.91
27840;BME280;15207;42.182;24.308;2022-08-19T12:38:10;98539.84;;;36.55;24.28
27840;BME280;15207;42.182;24.308;2022-08-19T12:40:36;98527.25;;;36.58;25.21
27840;BME280;15207;42.182;24.308;2022-08-19T12:43:02;98531.47;;;36.69;25.15
27840;BME280;15207;42.182;24.308;2022-08-19T12:45:28;98537.66;;;36.80;25.16
27840;BME280;15207;42.182;24.308;2022-08-19T12:47:54;98535.84;;;36.47;25.07
27840;BME280;15207;42.182;24.308;2022-08-19T12:50:20;98531.63;;;36.50;25.25
27840;BME280;15207;42.182;24.308;2022-08-19T12:52:47;98544.34;;;36.28;25.15
27840;BME280;15207;42.182;24.308;2022-08-19T12:55:13;98534.63;;;36.11;25.42
27840;BME280;15207;42.182;24.308;2022-08-19T12:57:39;98529.22;;;36.20;24.78
27840;BME280;15207;42.182;24.308;2022-08-19T13:00:14;98524.44;;;36.21;25.43
27840;BME280;15207;42.182;24.308;2022-08-19T13:02:43;98518.56;;;36.08;24.98
27840;BME280;15207;42.182;24.308;2022-08-19T13:05:11;98530.91;;;36.02;24.87
27840;BME280;15207;42.182;24.308;2022-08-19T13:07:39;98517.41;;;36.09;24.65